sensor_id;sensor_type;location;lat;lon;timestamp;P1;durP1;ratioP1;P2;durP2;ratioP2
54037;SDS011;39954;48.844;9.726;2023-07-30T00:00:51;14.60;;;4.65;;
54037;SDS011;39954;48.844;9.726;2023-07-30T00:01:53;12.55;;;4.82;;
54037;SDS011;39954;48.844;9.726;2023-07-30T00:02:58;14.40;;;5.70;;
54037;SDS011;39954;48.844;9.726;2023-07-30T00:04:00;15.80;;;4.93;;
54037;SDS011;39954;48.844;9.726;2023-07-30T00:05:05;8.63;;;3.67;;
54037;SDS011;39954;48.844;9.726;2023-07-30T00:06:08;18.65;;;5.97;;
54037;SDS011;39954;48.844;9.726;2023-07-30T00:07:12;213.60;;;9.32;;
54037;SDS011;39954;48.844;9.726;2023-07-30T00:08:15;172.70;;;8.65;;
54037;SDS011;39954;48.844;9.726;2023-07-30T00:09:22;29.15;;;5.85;;
54037;SDS011;39954;48.844;9.726;2023-07-30T00:10:25;13.82;;;4.78;;
54037;SDS011;39954;48.844;9.726;2023-07-30T00:11:29;11.63;;;4.35;;
54037;SDS011;39954;48.844;9.726;2023-07-30T00:12:32;19.75;;;6.22;;
54037;SDS011;39954;48.844;9.726;2023-07-30T00:13:36;14.63;;;4.88;;
54037;SDS011;39954;48.844;9.726;2023-07-30T00:14:39;16.65;;;4.65;;
54037;SDS011;39954;48.844;9.726;2023-07-30T00:15:45;34.38;;;6.85;;
54037;SDS011;39954;48.844;9.726;2023-07-30T00:16:47;22.92;;;5.80;;
54037;SDS011;39954;48.844;9.726;2023-07-30T00:17:52;18.85;;;5.78;;
54037;SDS011;39954;48.844;9.726;2023-07-30T00:18:54;22.52;;;7.05;;
54037;SDS011;39954;48.844;9.726;2023-07-30T00:19:59;18.40;;;5.90;;
54037;SDS011;39954;48.844;9.726;2023-07-30T00:21:01;14.40;;;4.85;;
54037;SDS011;39954;48.844;9.726;2023-07-30T00:22:06;16.63;;;5.30;;
54037;SDS011;39954;48.844;9.726;2023-07-30T00:23:08;13.80;;;4.45;;
54037;SDS011;39954;48.844;9.726;2023-07-30T00:24:13;12.50;;;4.68;;
54037;SDS011;39954;48.844;9.726;2023-07-30T00:25:18;22.85;;;5.63;;
54037;SDS011;39954;48.844;9.726;2023-07-30T00:26:23;13.93;;;4.50;;
54037;SDS011;39954;48.844;9.726;2023-07-30T00:27:27;13.88;;;4.15;;
54037;SDS011;39954;48.844;9.726;2023-07-30T00:28:29;23.98;;;6.18;;
54037;SDS011;39954;48.844;9.726;2023-07-30T00:29:34;11.98;;;3.63;;
54037;SDS011;39954;48.844;9.726;2023-07-30T00:30:36;12.85;;;4.35;;
54037;SDS011;39954;48.844;9.726;2023-07-30T00:31:41;14.70;;;4.78;;
54037;SDS011;39954;48.844;9.726;2023-07-30T00:32:44;8.00;;;3.28;;
54037;SDS011;39954;48.844;9.726;2023-07-30T00:33:48;14.38;;;4.45;;
54037;SDS011;39954;48.844;9.726;2023-07-30T00:34:51;12.25;;;4.85;;
54037;SDS011;39954;48.844;9.726;2023-07-30T00:35:55;15.85;;;5.03;;
54037;SDS011;39954;48.844;9.726;2023-07-30T00:36:57;20.05;;;5.50;;
54037;SDS011;39954;48.844;9.726;2023-07-30T00:38:02;20.30;;;5.03;;
54037;SDS011;39954;48.844;9.726;2023-07-30T00:39:04;12.23;;;3.97;;
54037;SDS011;39954;48.844;9.726;2023-07-30T00:40:12;9.10;;;3.20;;
54037;SDS011;39954;48.844;9.726;2023-07-30T00:41:17;9.52;;;3.47;;
54037;SDS011;39954;48.844;9.726;2023-07-30T00:42:22;9.98;;;3.50;;
54037;SDS011;39954;48.844;9.726;2023-07-30T00:43:25;10.90;;;3.78;;
54037;SDS011;39954;48.844;9.726;2023-07-30T00:44:29;11.32;;;3.90;;
54037;SDS011;39954;48.844;9.726;2023-07-30T00:45:32;11.02;;;3.33;;
54037;SDS011;39954;48.844;9.726;2023-07-30T00:46:37;14.32;;;4.60;;
54037;SDS011;39954;48.844;9.726;2023-07-30T00:47:39;8.60;;;3.22;;
54037;SDS011;39954;48.844;9.726;2023-07-30T00:48:45;10.02;;;4.03;;
54037;SDS011;39954;48.844;9.726;2023-07-30T00:49:47;8.18;;;4.00;;
54037;SDS011;39954;48.844;9.726;2023-07-30T00:50:52;10.52;;;3.85;;
54037;SDS011;39954;48.844;9.726;2023-07-30T00:51:55;17.33;;;6.35;;
54037;SDS011;39954;48.844;9.726;2023-07-30T00:53:00;11.68;;;4.38;;
54037;SDS011;39954;48.844;9.726;2023-07-30T00:54:03;11.30;;;5.07;;
54037;SDS011;39954;48.844;9.726;2023-07-30T00:55:07;14.82;;;4.10;;
54037;SDS011;39954;48.844;9.726;2023-07-30T00:56:11;16.23;;;6.40;;
54037;SDS011;39954;48.844;9.726;2023-07-30T00:57:18;11.50;;;4.57;;
54037;SDS011;39954;48.844;9.726;2023-07-30T00:58:21;7.30;;;3.75;;
54037;SDS011;39954;48.844;9.726;2023-07-30T00:59:26;8.60;;;4.03;;
54037;SDS011;39954;48.844;9.726;2023-07-30T01:00:28;10.57;;;3.45;;
54037;SDS011;39954;48.844;9.726;2023-07-30T01:01:33;14.68;;;5.50;;
54037;SDS011;39954;48.844;9.726;2023-07-30T01:02:39;16.08;;;4.68;;
54037;SDS011;39954;48.844;9.726;2023-07-30T01:03:44;13.90;;;5.13;;
54037;SDS011;39954;48.844;9.726;2023-07-30T01:04:46;12.98;;;4.35;;
54037;SDS011;39954;48.844;9.726;2023-07-30T01:05:51;17.80;;;5.78;;
54037;SDS011;39954;48.844;9.726;2023-07-30T01:06:54;13.70;;;4.68;;
54037;SDS011;39954;48.844;9.726;2023-07-30T01:07:56;21.33;;;6.88;;
54037;SDS011;39954;48.844;9.726;2023-07-30T01:09:01;16.45;;;5.38;;
54037;SDS011;39954;48.844;9.726;2023-07-30T01:10:03;14.95;;;5.47;;
54037;SDS011;39954;48.844;9.726;2023-07-30T01:11:08;10.18;;;3.63;;
54037;SDS011;39954;48.844;9.726;2023-07-30T01:12:11;9.13;;;3.17;;
54037;SDS011;39954;48.844;9.726;2023-07-30T01:13:21;7.28;;;3.17;;
54037;SDS011;39954;48.844;9.726;2023-07-30T01:14:23;8.15;;;3.50;;
54037;SDS011;39954;48.844;9.726;2023-07-30T01:15:30;17.67;;;4.43;;
54037;SDS011;39954;48.844;9.726;2023-07-30T01:16:33;8.57;;;3.58;;
54037;SDS011;39954;48.844;9.726;2023-07-30T01:17:38;8.73;;;3.60;;
54037;SDS011;39954;48.844;9.726;2023-07-30T01:18:41;8.70;;;3.78;;
54037;SDS011;39954;48.844;9.726;2023-07-30T01:19:45;8.82;;;3.67;;
54037;SDS011;39954;48.844;9.726;2023-07-30T01:20:48;4.38;;;2.80;;
54037;SDS011;39954;48.844;9.726;2023-07-30T01:21:55;16.25;;;3.25;;
54037;SDS011;39954;48.844;9.726;2023-07-30T01:22:57;7.90;;;3.60;;
54037;SDS011;39954;48.844;9.726;2023-07-30T01:24:02;8.90;;;3.35;;
54037;SDS011;39954;48.844;9.726;2023-07-30T01:25:05;9.00;;;3.63;;
54037;SDS011;39954;48.844;9.726;2023-07-30T01:26:09;9.95;;;3.97;;
54037;SDS011;39954;48.844;9.726;2023-07-30T01:27:19;6.28;;;2.90;;
54037;SDS011;39954;48.844;9.726;2023-07-30T01:28:25;9.60;;;3.53;;
54037;SDS011;39954;48.844;9.726;2023-07-30T01:29:33;7.25;;;3.35;;
54037;SDS011;39954;48.844;9.726;2023-07-30T01:30:42;7.97;;;3.70;;
54037;SDS011;39954;48.844;9.726;2023-07-30T01:31:51;8.13;;;3.25;;
54037;SDS011;39954;48.844;9.726;2023-07-30T01:32:59;11.52;;;4.75;;
54037;SDS011;39954;48.844;9.726;2023-07-30T01:34:04;11.38;;;4.63;;
54037;SDS011;39954;48.844;9.726;2023-07-30T01:35:08;13.45;;;4.50;;
54037;SDS011;39954;48.844;9.726;2023-07-30T01:36:13;12.02;;;4.75;;
54037;SDS011;39954;48.844;9.726;2023-07-30T01:37:21;8.32;;;3.55;;
54037;SDS011;39954;48.844;9.726;2023-07-30T01:38:27;8.80;;;3.70;;
54037;SDS011;39954;48.844;9.726;2023-07-30T01:39:29;19.88;;;7.05;;
54037;SDS011;39954;48.844;9.726;2023-07-30T01:40:36;8.07;;;3.15;;
54037;SDS011;39954;48.844;9.726;2023-07-30T01:41:38;8.50;;;3.63;;
54037;SDS011;39954;48.844;9.726;2023-07-30T01:42:43;12.48;;;4.10;;
54037;SDS011;39954;48.844;9.726;2023-07-30T01:43:45;8.40;;;3.60;;
54037;SDS011;39954;48.844;9.726;2023-07-30T01:44:50;5.57;;;3.15;;
54037;SDS011;39954;48.844;9.726;2023-07-30T01:45:52;12.18;;;4.88;;
54037;SDS011;39954;48.844;9.726;2023-07-30T01:46:57;6.88;;;3.10;;
54037;SDS011;39954;48.844;9.726;2023-07-30T01:47:59;25.08;;;8.93;;
54037;SDS011;39954;48.844;9.726;2023-07-30T01:49:04;14.63;;;5.13;;
54037;SDS011;39954;48.844;9.726;2023-07-30T01:50:06;12.90;;;4.78;;
54037;SDS011;39954;48.844;9.726;2023-07-30T01:51:11;10.98;;;4.47;;
54037;SDS011;39954;48.844;9.726;2023-07-30T01:52:13;7.07;;;3.92;;
54037;SDS011;39954;48.844;9.726;2023-07-30T01:53:21;6.97;;;3.40;;
54037;SDS011;39954;48.844;9.726;2023-07-30T01:54:23;7.30;;;3.25;;
54037;SDS011;39954;48.844;9.726;2023-07-30T01:55:27;7.05;;;3.72;;
54037;SDS011;39954;48.844;9.726;2023-07-30T01:56:30;9.90;;;4.38;;
54037;SDS011;39954;48.844;9.726;2023-07-30T01:57:34;6.95;;;3.60;;
54037;SDS011;39954;48.844;9.726;2023-07-30T01:58:36;9.82;;;3.78;;
54037;SDS011;39954;48.844;9.726;2023-07-30T01:59:41;8.52;;;3.50;;
54037;SDS011;39954;48.844;9.726;2023-07-30T02:00:43;8.38;;;3.08;;
54037;SDS011;39954;48.844;9.726;2023-07-30T02:01:49;12.88;;;3.72;;
54037;SDS011;39954;48.844;9.726;2023-07-30T02:02:51;8.30;;;3.28;;
54037;SDS011;39954;48.844;9.726;2023-07-30T02:03:56;6.72;;;3.63;;
54037;SDS011;39954;48.844;9.726;2023-07-30T02:04:58;19.73;;;6.05;;
54037;SDS011;39954;48.844;9.726;2023-07-30T02:06:03;14.85;;;4.63;;
54037;SDS011;39954;48.844;9.726;2023-07-30T02:07:05;13.63;;;4.63;;
54037;SDS011;39954;48.844;9.726;2023-07-30T02:08:10;11.75;;;4.72;;
54037;SDS011;39954;48.844;9.726;2023-07-30T02:09:17;7.90;;;3.92;;
54037;SDS011;39954;48.844;9.726;2023-07-30T02:10:23;17.30;;;6.50;;
54037;SDS011;39954;48.844;9.726;2023-07-30T02:11:27;13.18;;;3.65;;
54037;SDS011;39954;48.844;9.726;2023-07-30T02:12:32;18.45;;;7.10;;
54037;SDS011;39954;48.844;9.726;2023-07-30T02:13:34;9.60;;;3.80;;
54037;SDS011;39954;48.844;9.726;2023-07-30T02:14:39;6.90;;;3.47;;
54037;SDS011;39954;48.844;9.726;2023-07-30T02:15:41;7.72;;;3.13;;
54037;SDS011;39954;48.844;9.726;2023-07-30T02:16:46;8.63;;;3.17;;
54037;SDS011;39954;48.844;9.726;2023-07-30T02:17:48;9.35;;;3.50;;
54037;SDS011;39954;48.844;9.726;2023-07-30T02:18:53;6.68;;;3.20;;
54037;SDS011;39954;48.844;9.726;2023-07-30T02:19:55;9.18;;;3.33;;
54037;SDS011;39954;48.844;9.726;2023-07-30T02:21:00;13.00;;;5.15;;
54037;SDS011;39954;48.844;9.726;2023-07-30T02:22:02;11.90;;;5.00;;
54037;SDS011;39954;48.844;9.726;2023-07-30T02:23:08;12.13;;;4.82;;
54037;SDS011;39954;48.844;9.726;2023-07-30T02:24:10;16.05;;;5.47;;
54037;SDS011;39954;48.844;9.726;2023-07-30T02:25:17;13.50;;;5.40;;
54037;SDS011;39954;48.844;9.726;2023-07-30T02:26:20;6.95;;;3.92;;
54037;SDS011;39954;48.844;9.726;2023-07-30T02:27:25;7.05;;;4.20;;
54037;SDS011;39954;48.844;9.726;2023-07-30T02:28:27;7.65;;;3.92;;
54037;SDS011;39954;48.844;9.726;2023-07-30T02:29:32;10.88;;;4.72;;
54037;SDS011;39954;48.844;9.726;2023-07-30T02:30:34;7.20;;;3.65;;
54037;SDS011;39954;48.844;9.726;2023-07-30T02:31:39;7.05;;;3.25;;
54037;SDS011;39954;48.844;9.726;2023-07-30T02:32:41;13.65;;;5.43;;
54037;SDS011;39954;48.844;9.726;2023-07-30T02:33:46;7.13;;;3.63;;
54037;SDS011;39954;48.844;9.726;2023-07-30T02:34:48;8.60;;;3.72;;
54037;SDS011;39954;48.844;9.726;2023-07-30T02:35:53;8.70;;;4.50;;
54037;SDS011;39954;48.844;9.726;2023-07-30T02:36:55;7.97;;;3.63;;
54037;SDS011;39954;48.844;9.726;2023-07-30T02:38:00;6.75;;;3.88;;
54037;SDS011;39954;48.844;9.726;2023-07-30T02:39:02;12.65;;;5.55;;
54037;SDS011;39954;48.844;9.726;2023-07-30T02:40:08;8.45;;;4.50;;
54037;SDS011;39954;48.844;9.726;2023-07-30T02:41:14;8.95;;;4.43;;
54037;SDS011;39954;48.844;9.726;2023-07-30T02:42:19;12.60;;;5.25;;
54037;SDS011;39954;48.844;9.726;2023-07-30T02:43:21;10.02;;;4.78;;
54037;SDS011;39954;48.844;9.726;2023-07-30T02:44:26;10.18;;;4.53;;
54037;SDS011;39954;48.844;9.726;2023-07-30T02:45:28;15.35;;;5.80;;
54037;SDS011;39954;48.844;9.726;2023-07-30T02:46:34;12.95;;;5.45;;
54037;SDS011;39954;48.844;9.726;2023-07-30T02:47:37;11.80;;;5.60;;
54037;SDS011;39954;48.844;9.726;2023-07-30T02:48:41;10.23;;;5.20;;
54037;SDS011;39954;48.844;9.726;2023-07-30T02:49:43;15.65;;;7.00;;
54037;SDS011;39954;48.844;9.726;2023-07-30T02:50:48;19.85;;;7.88;;
54037;SDS011;39954;48.844;9.726;2023-07-30T02:51:50;14.85;;;7.10;;
54037;SDS011;39954;48.844;9.726;2023-07-30T02:52:55;14.98;;;7.68;;
54037;SDS011;39954;48.844;9.726;2023-07-30T02:53:58;12.38;;;6.88;;
54037;SDS011;39954;48.844;9.726;2023-07-30T02:55:03;19.58;;;8.65;;
54037;SDS011;39954;48.844;9.726;2023-07-30T02:56:06;22.88;;;8.70;;
54037;SDS011;39954;48.844;9.726;2023-07-30T02:57:14;19.25;;;8.98;;
54037;SDS011;39954;48.844;9.726;2023-07-30T02:58:16;25.63;;;10.40;;
54037;SDS011;39954;48.844;9.726;2023-07-30T02:59:21;19.88;;;7.57;;
54037;SDS011;39954;48.844;9.726;2023-07-30T03:00:23;20.25;;;8.27;;
54037;SDS011;39954;48.844;9.726;2023-07-30T03:01:28;15.27;;;8.10;;
54037;SDS011;39954;48.844;9.726;2023-07-30T03:02:30;15.18;;;7.80;;
54037;SDS011;39954;48.844;9.726;2023-07-30T03:03:35;16.35;;;7.90;;
54037;SDS011;39954;48.844;9.726;2023-07-30T03:04:37;17.90;;;7.93;;
54037;SDS011;39954;48.844;9.726;2023-07-30T03:05:42;19.67;;;7.55;;
54037;SDS011;39954;48.844;9.726;2023-07-30T03:06:44;15.10;;;8.05;;
54037;SDS011;39954;48.844;9.726;2023-07-30T03:07:49;17.83;;;7.95;;
54037;SDS011;39954;48.844;9.726;2023-07-30T03:08:51;17.38;;;7.90;;
54037;SDS011;39954;48.844;9.726;2023-07-30T03:09:56;19.98;;;7.80;;
54037;SDS011;39954;48.844;9.726;2023-07-30T03:10:58;18.08;;;8.35;;
54037;SDS011;39954;48.844;9.726;2023-07-30T03:12:03;22.73;;;9.45;;
54037;SDS011;39954;48.844;9.726;2023-07-30T03:13:09;20.05;;;8.93;;
54037;SDS011;39954;48.844;9.726;2023-07-30T03:14:14;19.33;;;8.57;;
54037;SDS011;39954;48.844;9.726;2023-07-30T03:15:16;20.63;;;9.35;;
54037;SDS011;39954;48.844;9.726;2023-07-30T03:16:18;24.35;;;10.20;;
54037;SDS011;39954;48.844;9.726;2023-07-30T03:17:23;18.63;;;7.85;;
54037;SDS011;39954;48.844;9.726;2023-07-30T03:18:25;15.90;;;8.38;;
54037;SDS011;39954;48.844;9.726;2023-07-30T03:19:30;19.13;;;8.50;;
54037;SDS011;39954;48.844;9.726;2023-07-30T03:20:32;19.95;;;9.07;;
54037;SDS011;39954;48.844;9.726;2023-07-30T03:21:37;20.70;;;8.35;;
54037;SDS011;39954;48.844;9.726;2023-07-30T03:22:40;19.63;;;8.63;;
54037;SDS011;39954;48.844;9.726;2023-07-30T03:23:44;21.60;;;10.38;;
54037;SDS011;39954;48.844;9.726;2023-07-30T03:24:47;17.52;;;9.43;;
54037;SDS011;39954;48.844;9.726;2023-07-30T03:25:51;20.48;;;9.30;;
54037;SDS011;39954;48.844;9.726;2023-07-30T03:26:54;21.08;;;9.70;;
54037;SDS011;39954;48.844;9.726;2023-07-30T03:27:58;18.65;;;9.55;;
54037;SDS011;39954;48.844;9.726;2023-07-30T03:29:03;17.95;;;8.98;;
54037;SDS011;39954;48.844;9.726;2023-07-30T03:30:08;24.63;;;11.20;;
54037;SDS011;39954;48.844;9.726;2023-07-30T03:31:11;24.58;;;11.05;;
54037;SDS011;39954;48.844;9.726;2023-07-30T03:32:16;22.05;;;10.93;;
54037;SDS011;39954;48.844;9.726;2023-07-30T03:33:18;23.92;;;11.70;;
54037;SDS011;39954;48.844;9.726;2023-07-30T03:34:23;23.30;;;11.38;;
54037;SDS011;39954;48.844;9.726;2023-07-30T03:35:25;26.52;;;11.40;;
54037;SDS011;39954;48.844;9.726;2023-07-30T03:36:30;30.52;;;12.77;;
54037;SDS011;39954;48.844;9.726;2023-07-30T03:37:35;22.95;;;11.10;;
54037;SDS011;39954;48.844;9.726;2023-07-30T03:38:37;30.25;;;12.80;;
54037;SDS011;39954;48.844;9.726;2023-07-30T03:39:41;25.70;;;12.32;;
54037;SDS011;39954;48.844;9.726;2023-07-30T03:40:44;29.02;;;13.57;;
54037;SDS011;39954;48.844;9.726;2023-07-30T03:41:48;28.45;;;12.90;;
54037;SDS011;39954;48.844;9.726;2023-07-30T03:42:50;32.13;;;13.90;;
54037;SDS011;39954;48.844;9.726;2023-07-30T03:43:55;28.45;;;13.43;;
54037;SDS011;39954;48.844;9.726;2023-07-30T03:45:00;29.48;;;13.57;;
54037;SDS011;39954;48.844;9.726;2023-07-30T03:46:05;29.88;;;13.23;;
54037;SDS011;39954;48.844;9.726;2023-07-30T03:47:07;29.40;;;14.15;;
54037;SDS011;39954;48.844;9.726;2023-07-30T03:48:12;35.05;;;15.07;;
54037;SDS011;39954;48.844;9.726;2023-07-30T03:49:14;35.08;;;14.85;;
54037;SDS011;39954;48.844;9.726;2023-07-30T03:50:19;31.45;;;14.70;;
54037;SDS011;39954;48.844;9.726;2023-07-30T03:51:21;36.85;;;14.77;;
54037;SDS011;39954;48.844;9.726;2023-07-30T03:52:26;33.28;;;14.18;;
54037;SDS011;39954;48.844;9.726;2023-07-30T03:53:28;33.80;;;14.77;;
54037;SDS011;39954;48.844;9.726;2023-07-30T03:54:30;30.60;;;14.55;;
54037;SDS011;39954;48.844;9.726;2023-07-30T03:55:35;29.45;;;14.02;;
54037;SDS011;39954;48.844;9.726;2023-07-30T03:56:37;31.48;;;14.85;;
54037;SDS011;39954;48.844;9.726;2023-07-30T03:57:42;29.40;;;13.15;;
54037;SDS011;39954;48.844;9.726;2023-07-30T03:58:44;33.13;;;14.52;;
54037;SDS011;39954;48.844;9.726;2023-07-30T03:59:49;34.13;;;14.48;;
54037;SDS011;39954;48.844;9.726;2023-07-30T04:00:54;28.48;;;13.63;;
54037;SDS011;39954;48.844;9.726;2023-07-30T04:01:59;32.80;;;14.82;;
54037;SDS011;39954;48.844;9.726;2023-07-30T04:03:01;40.60;;;15.52;;
54037;SDS011;39954;48.844;9.726;2023-07-30T04:04:06;31.23;;;14.10;;
54037;SDS011;39954;48.844;9.726;2023-07-30T04:05:08;38.67;;;15.77;;
54037;SDS011;39954;48.844;9.726;2023-07-30T04:06:13;34.63;;;15.50;;
54037;SDS011;39954;48.844;9.726;2023-07-30T04:07:15;34.60;;;15.43;;
54037;SDS011;39954;48.844;9.726;2023-07-30T04:08:20;35.13;;;15.02;;
54037;SDS011;39954;48.844;9.726;2023-07-30T04:09:22;35.83;;;15.55;;
54037;SDS011;39954;48.844;9.726;2023-07-30T04:10:27;31.65;;;14.32;;
54037;SDS011;39954;48.844;9.726;2023-07-30T04:11:29;32.15;;;13.00;;
54037;SDS011;39954;48.844;9.726;2023-07-30T04:12:34;29.13;;;12.20;;
54037;SDS011;39954;48.844;9.726;2023-07-30T04:13:36;32.80;;;14.55;;
54037;SDS011;39954;48.844;9.726;2023-07-30T04:14:42;29.10;;;13.25;;
54037;SDS011;39954;48.844;9.726;2023-07-30T04:15:46;28.10;;;12.35;;
54037;SDS011;39954;48.844;9.726;2023-07-30T04:16:54;36.15;;;13.73;;
54037;SDS011;39954;48.844;9.726;2023-07-30T04:17:56;26.92;;;12.40;;
54037;SDS011;39954;48.844;9.726;2023-07-30T04:19:01;24.30;;;11.85;;
54037;SDS011;39954;48.844;9.726;2023-07-30T04:20:04;32.00;;;13.63;;
54037;SDS011;39954;48.844;9.726;2023-07-30T04:21:10;20.13;;;10.70;;
54037;SDS011;39954;48.844;9.726;2023-07-30T04:22:12;27.60;;;11.60;;
54037;SDS011;39954;48.844;9.726;2023-07-30T04:23:17;32.60;;;12.90;;
54037;SDS011;39954;48.844;9.726;2023-07-30T04:24:19;26.67;;;12.48;;
54037;SDS011;39954;48.844;9.726;2023-07-30T04:25:24;29.83;;;13.68;;
54037;SDS011;39954;48.844;9.726;2023-07-30T04:26:26;22.08;;;11.38;;
54037;SDS011;39954;48.844;9.726;2023-07-30T04:27:31;22.30;;;11.98;;
54037;SDS011;39954;48.844;9.726;2023-07-30T04:28:35;25.13;;;11.75;;
54037;SDS011;39954;48.844;9.726;2023-07-30T04:29:40;24.35;;;11.35;;
54037;SDS011;39954;48.844;9.726;2023-07-30T04:30:42;23.50;;;11.00;;
54037;SDS011;39954;48.844;9.726;2023-07-30T04:31:48;21.88;;;11.57;;
54037;SDS011;39954;48.844;9.726;2023-07-30T04:32:53;21.27;;;10.63;;
54037;SDS011;39954;48.844;9.726;2023-07-30T04:33:58;19.70;;;9.90;;
54037;SDS011;39954;48.844;9.726;2023-07-30T04:35:00;25.35;;;11.73;;
54037;SDS011;39954;48.844;9.726;2023-07-30T04:36:05;19.63;;;10.18;;
54037;SDS011;39954;48.844;9.726;2023-07-30T04:37:09;16.75;;;9.70;;
54037;SDS011;39954;48.844;9.726;2023-07-30T04:38:14;19.65;;;10.43;;
54037;SDS011;39954;48.844;9.726;2023-07-30T04:39:16;17.77;;;9.65;;
54037;SDS011;39954;48.844;9.726;2023-07-30T04:40:21;24.20;;;10.20;;
54037;SDS011;39954;48.844;9.726;2023-07-30T04:41:23;24.40;;;10.50;;
54037;SDS011;39954;48.844;9.726;2023-07-30T04:42:28;20.40;;;9.88;;
54037;SDS011;39954;48.844;9.726;2023-07-30T04:43:30;14.75;;;8.60;;
54037;SDS011;39954;48.844;9.726;2023-07-30T04:44:35;12.93;;;7.95;;
54037;SDS011;39954;48.844;9.726;2023-07-30T04:45:37;21.73;;;8.65;;
54037;SDS011;39954;48.844;9.726;2023-07-30T04:46:41;19.77;;;8.05;;
54037;SDS011;39954;48.844;9.726;2023-07-30T04:47:44;19.92;;;9.35;;
54037;SDS011;39954;48.844;9.726;2023-07-30T04:48:51;15.32;;;8.40;;
54037;SDS011;39954;48.844;9.726;2023-07-30T04:49:53;17.77;;;9.40;;
54037;SDS011;39954;48.844;9.726;2023-07-30T04:50:58;13.00;;;7.60;;
54037;SDS011;39954;48.844;9.726;2023-07-30T04:52:01;14.90;;;7.57;;
54037;SDS011;39954;48.844;9.726;2023-07-30T04:53:06;13.75;;;7.30;;
54037;SDS011;39954;48.844;9.726;2023-07-30T04:54:08;14.93;;;7.53;;
54037;SDS011;39954;48.844;9.726;2023-07-30T04:55:13;16.13;;;7.80;;
54037;SDS011;39954;48.844;9.726;2023-07-30T04:56:15;22.05;;;8.88;;
54037;SDS011;39954;48.844;9.726;2023-07-30T04:57:20;15.77;;;7.55;;
54037;SDS011;39954;48.844;9.726;2023-07-30T04:58:22;14.48;;;6.72;;
54037;SDS011;39954;48.844;9.726;2023-07-30T04:59:27;20.27;;;8.30;;
54037;SDS011;39954;48.844;9.726;2023-07-30T05:00:29;24.17;;;8.90;;
54037;SDS011;39954;48.844;9.726;2023-07-30T05:01:34;9.52;;;5.55;;
54037;SDS011;39954;48.844;9.726;2023-07-30T05:02:36;13.07;;;5.90;;
54037;SDS011;39954;48.844;9.726;2023-07-30T05:03:41;12.68;;;6.65;;
54037;SDS011;39954;48.844;9.726;2023-07-30T05:04:46;9.73;;;6.30;;
54037;SDS011;39954;48.844;9.726;2023-07-30T05:05:51;12.52;;;5.90;;
54037;SDS011;39954;48.844;9.726;2023-07-30T05:06:53;20.02;;;8.68;;
54037;SDS011;39954;48.844;9.726;2023-07-30T05:07:58;10.20;;;5.95;;
54037;SDS011;39954;48.844;9.726;2023-07-30T05:09:00;12.13;;;6.22;;
54037;SDS011;39954;48.844;9.726;2023-07-30T05:10:05;12.88;;;7.03;;
54037;SDS011;39954;48.844;9.726;2023-07-30T05:11:11;10.65;;;6.22;;
54037;SDS011;39954;48.844;9.726;2023-07-30T05:12:16;11.52;;;6.40;;
54037;SDS011;39954;48.844;9.726;2023-07-30T05:13:18;19.83;;;8.65;;
54037;SDS011;39954;48.844;9.726;2023-07-30T05:14:23;15.35;;;7.82;;
54037;SDS011;39954;48.844;9.726;2023-07-30T05:15:25;14.40;;;7.10;;
54037;SDS011;39954;48.844;9.726;2023-07-30T05:16:30;22.20;;;8.73;;
54037;SDS011;39954;48.844;9.726;2023-07-30T05:17:32;14.20;;;7.55;;
54037;SDS011;39954;48.844;9.726;2023-07-30T05:18:38;17.92;;;7.20;;
54037;SDS011;39954;48.844;9.726;2023-07-30T05:19:40;17.40;;;7.95;;
54037;SDS011;39954;48.844;9.726;2023-07-30T05:20:48;17.63;;;8.48;;
54037;SDS011;39954;48.844;9.726;2023-07-30T05:21:50;12.10;;;7.10;;
54037;SDS011;39954;48.844;9.726;2023-07-30T05:22:54;14.52;;;6.75;;
54037;SDS011;39954;48.844;9.726;2023-07-30T05:23:57;19.48;;;8.30;;
54037;SDS011;39954;48.844;9.726;2023-07-30T05:25:01;11.27;;;6.15;;
54037;SDS011;39954;48.844;9.726;2023-07-30T05:26:04;10.55;;;5.60;;
54037;SDS011;39954;48.844;9.726;2023-07-30T05:27:09;14.02;;;7.32;;
54037;SDS011;39954;48.844;9.726;2023-07-30T05:28:11;12.70;;;7.03;;
54037;SDS011;39954;48.844;9.726;2023-07-30T05:29:16;14.38;;;7.43;;
54037;SDS011;39954;48.844;9.726;2023-07-30T05:30:18;18.88;;;8.57;;
54037;SDS011;39954;48.844;9.726;2023-07-30T05:31:23;18.73;;;7.93;;
54037;SDS011;39954;48.844;9.726;2023-07-30T05:32:25;19.85;;;8.00;;
54037;SDS011;39954;48.844;9.726;2023-07-30T05:33:30;22.52;;;10.05;;
54037;SDS011;39954;48.844;9.726;2023-07-30T05:34:32;16.92;;;8.02;;
54037;SDS011;39954;48.844;9.726;2023-07-30T05:35:37;13.80;;;7.53;;
54037;SDS011;39954;48.844;9.726;2023-07-30T05:36:42;20.25;;;8.95;;
54037;SDS011;39954;48.844;9.726;2023-07-30T05:37:46;15.77;;;7.75;;
54037;SDS011;39954;48.844;9.726;2023-07-30T05:38:49;15.07;;;7.93;;
54037;SDS011;39954;48.844;9.726;2023-07-30T05:39:53;22.85;;;9.60;;
54037;SDS011;39954;48.844;9.726;2023-07-30T05:40:55;17.10;;;8.02;;
54037;SDS011;39954;48.844;9.726;2023-07-30T05:42:00;15.35;;;7.95;;
54037;SDS011;39954;48.844;9.726;2023-07-30T05:43:02;17.95;;;9.23;;
54037;SDS011;39954;48.844;9.726;2023-07-30T05:44:07;14.35;;;7.82;;
54037;SDS011;39954;48.844;9.726;2023-07-30T05:45:10;13.05;;;7.07;;
54037;SDS011;39954;48.844;9.726;2023-07-30T05:46:14;23.08;;;9.35;;
54037;SDS011;39954;48.844;9.726;2023-07-30T05:47:17;12.77;;;7.35;;
54037;SDS011;39954;48.844;9.726;2023-07-30T05:48:22;20.25;;;9.15;;
54037;SDS011;39954;48.844;9.726;2023-07-30T05:49:24;18.60;;;8.45;;
54037;SDS011;39954;48.844;9.726;2023-07-30T05:50:29;19.90;;;8.43;;
54037;SDS011;39954;48.844;9.726;2023-07-30T05:51:31;22.77;;;8.40;;
54037;SDS011;39954;48.844;9.726;2023-07-30T05:52:39;18.15;;;7.88;;
54037;SDS011;39954;48.844;9.726;2023-07-30T05:53:42;14.10;;;7.63;;
54037;SDS011;39954;48.844;9.726;2023-07-30T05:54:46;16.50;;;7.40;;
54037;SDS011;39954;48.844;9.726;2023-07-30T05:55:49;18.02;;;7.43;;
54037;SDS011;39954;48.844;9.726;2023-07-30T05:56:53;14.30;;;6.95;;
54037;SDS011;39954;48.844;9.726;2023-07-30T05:57:56;13.10;;;6.95;;
54037;SDS011;39954;48.844;9.726;2023-07-30T05:59:00;12.73;;;6.55;;
54037;SDS011;39954;48.844;9.726;2023-07-30T06:00:03;14.98;;;6.80;;
54037;SDS011;39954;48.844;9.726;2023-07-30T06:01:09;14.88;;;6.43;;
54037;SDS011;39954;48.844;9.726;2023-07-30T06:02:13;19.13;;;6.88;;
54037;SDS011;39954;48.844;9.726;2023-07-30T06:03:17;14.43;;;6.32;;
54037;SDS011;39954;48.844;9.726;2023-07-30T06:04:20;22.40;;;7.38;;
54037;SDS011;39954;48.844;9.726;2023-07-30T06:05:25;24.33;;;8.88;;
54037;SDS011;39954;48.844;9.726;2023-07-30T06:07:33;23.00;;;8.80;;
54037;SDS011;39954;48.844;9.726;2023-07-30T06:08:38;21.02;;;8.18;;
54037;SDS011;39954;48.844;9.726;2023-07-30T06:09:43;14.90;;;6.45;;
54037;SDS011;39954;48.844;9.726;2023-07-30T06:10:46;13.07;;;6.38;;
54037;SDS011;39954;48.844;9.726;2023-07-30T06:11:51;22.02;;;7.78;;
54037;SDS011;39954;48.844;9.726;2023-07-30T06:12:53;15.10;;;6.65;;
54037;SDS011;39954;48.844;9.726;2023-07-30T06:13:58;14.82;;;6.78;;
54037;SDS011;39954;48.844;9.726;2023-07-30T06:15:00;19.45;;;7.63;;
54037;SDS011;39954;48.844;9.726;2023-07-30T06:16:05;9.15;;;5.57;;
54037;SDS011;39954;48.844;9.726;2023-07-30T06:17:07;13.82;;;5.90;;
54037;SDS011;39954;48.844;9.726;2023-07-30T06:18:12;14.65;;;6.63;;
54037;SDS011;39954;48.844;9.726;2023-07-30T06:19:15;16.70;;;6.88;;
54037;SDS011;39954;48.844;9.726;2023-07-30T06:20:19;15.77;;;6.95;;